sensor_id;sensor_type;location;lat;lon;timestamp;P1;durP1;ratioP1;P2;durP2;ratioP2
45784;SDS011;31489;51.404;5.474;2024-03-08T00:01:12;27.63;;;16.35;;
45784;SDS011;31489;51.404;5.474;2024-03-08T00:03:38;25.67;;;16.55;;
45784;SDS011;31489;51.404;5.474;2024-03-08T00:06:05;27.80;;;16.25;;
45784;SDS011;31489;51.404;5.474;2024-03-08T00:08:31;25.02;;;16.45;;
45784;SDS011;31489;51.404;5.474;2024-03-08T00:10:56;27.13;;;15.93;;
45784;SDS011;31489;51.404;5.474;2024-03-08T00:13:22;28.48;;;17.00;;
45784;SDS011;31489;51.404;5.474;2024-03-08T00:15:50;27.58;;;16.08;;
45784;SDS011;31489;51.404;5.474;2024-03-08T00:18:16;23.42;;;15.40;;
45784;SDS011;31489;51.404;5.474;2024-03-08T00:20:41;24.77;;;15.43;;
45784;SDS011;31489;51.404;5.474;2024-03-08T00:23:08;24.05;;;14.93;;
45784;SDS011;31489;51.404;5.474;2024-03-08T00:25:35;26.10;;;16.15;;
45784;SDS011;31489;51.404;5.474;2024-03-08T00:28:01;25.25;;;14.95;;
45784;SDS011;31489;51.404;5.474;2024-03-08T00:30:29;26.88;;;15.70;;
45784;SDS011;31489;51.404;5.474;2024-03-08T00:32:56;24.42;;;16.05;;
45784;SDS011;31489;51.404;5.474;2024-03-08T00:35:21;25.08;;;15.00;;
45784;SDS011;31489;51.404;5.474;2024-03-08T00:37:47;25.08;;;15.32;;
45784;SDS011;31489;51.404;5.474;2024-03-08T00:40:13;24.20;;;14.98;;
45784;SDS011;31489;51.404;5.474;2024-03-08T00:42:39;25.65;;;16.38;;
45784;SDS011;31489;51.404;5.474;2024-03-08T00:45:06;25.80;;;15.70;;
45784;SDS011;31489;51.404;5.474;2024-03-08T00:47:32;22.92;;;14.85;;
45784;SDS011;31489;51.404;5.474;2024-03-08T00:49:58;23.67;;;15.05;;
45784;SDS011;31489;51.404;5.474;2024-03-08T00:52:24;24.40;;;15.65;;
45784;SDS011;31489;51.404;5.474;2024-03-08T00:54:50;22.38;;;14.63;;
45784;SDS011;31489;51.404;5.474;2024-03-08T00:57:15;24.48;;;14.57;;
45784;SDS011;31489;51.404;5.474;2024-03-08T00:59:41;22.20;;;15.10;;
45784;SDS011;31489;51.404;5.474;2024-03-08T01:02:07;26.42;;;15.30;;
45784;SDS011;31489;51.404;5.474;2024-03-08T01:04:34;23.73;;;15.57;;
45784;SDS011;31489;51.404;5.474;2024-03-08T01:07:00;23.48;;;15.38;;
45784;SDS011;31489;51.404;5.474;2024-03-08T01:09:25;21.48;;;15.10;;
45784;SDS011;31489;51.404;5.474;2024-03-08T01:11:52;21.83;;;14.73;;
45784;SDS011;31489;51.404;5.474;2024-03-08T01:14:19;22.67;;;15.68;;
45784;SDS011;31489;51.404;5.474;2024-03-08T01:16:47;24.00;;;15.73;;
45784;SDS011;31489;51.404;5.474;2024-03-08T01:19:13;24.20;;;15.57;;
45784;SDS011;31489;51.404;5.474;2024-03-08T01:21:40;26.35;;;15.40;;
45784;SDS011;31489;51.404;5.474;2024-03-08T01:24:06;22.48;;;15.20;;
45784;SDS011;31489;51.404;5.474;2024-03-08T01:26:31;22.60;;;15.57;;
45784;SDS011;31489;51.404;5.474;2024-03-08T01:28:59;27.60;;;15.70;;
45784;SDS011;31489;51.404;5.474;2024-03-08T01:31:25;24.30;;;15.70;;
45784;SDS011;31489;51.404;5.474;2024-03-08T01:33:50;24.95;;;15.55;;
45784;SDS011;31489;51.404;5.474;2024-03-08T01:36:16;22.48;;;15.60;;
45784;SDS011;31489;51.404;5.474;2024-03-08T01:38:44;23.00;;;14.93;;
45784;SDS011;31489;51.404;5.474;2024-03-08T01:41:10;20.73;;;14.52;;
45784;SDS011;31489;51.404;5.474;2024-03-08T01:43:38;22.15;;;14.63;;
45784;SDS011;31489;51.404;5.474;2024-03-08T01:46:04;29.00;;;14.80;;
45784;SDS011;31489;51.404;5.474;2024-03-08T01:48:30;23.75;;;14.75;;
45784;SDS011;31489;51.404;5.474;2024-03-08T01:50:57;23.33;;;15.55;;
45784;SDS011;31489;51.404;5.474;2024-03-08T01:53:23;24.98;;;14.45;;
45784;SDS011;31489;51.404;5.474;2024-03-08T01:55:50;23.52;;;15.45;;
45784;SDS011;31489;51.404;5.474;2024-03-08T01:58:19;19.98;;;14.27;;
45784;SDS011;31489;51.404;5.474;2024-03-08T02:00:47;22.58;;;15.38;;
45784;SDS011;31489;51.404;5.474;2024-03-08T02:03:17;23.00;;;15.25;;
45784;SDS011;31489;51.404;5.474;2024-03-08T02:05:42;24.17;;;14.57;;
45784;SDS011;31489;51.404;5.474;2024-03-08T02:08:08;20.55;;;13.80;;
45784;SDS011;31489;51.404;5.474;2024-03-08T02:10:38;21.90;;;14.75;;
45784;SDS011;31489;51.404;5.474;2024-03-08T02:13:04;22.63;;;15.48;;
45784;SDS011;31489;51.404;5.474;2024-03-08T02:18:18;20.63;;;14.40;;
45784;SDS011;31489;51.404;5.474;2024-03-08T02:20:45;20.50;;;14.63;;
45784;SDS011;31489;51.404;5.474;2024-03-08T02:23:31;22.45;;;14.38;;
45784;SDS011;31489;51.404;5.474;2024-03-08T02:25:59;20.15;;;14.48;;
45784;SDS011;31489;51.404;5.474;2024-03-08T02:28:25;25.85;;;14.95;;
45784;SDS011;31489;51.404;5.474;2024-03-08T02:30:51;23.95;;;14.68;;
45784;SDS011;31489;51.404;5.474;2024-03-08T02:33:21;20.77;;;14.93;;
45784;SDS011;31489;51.404;5.474;2024-03-08T02:35:48;20.02;;;14.10;;
45784;SDS011;31489;51.404;5.474;2024-03-08T02:38:14;20.42;;;13.68;;
45784;SDS011;31489;51.404;5.474;2024-03-08T02:40:41;20.38;;;14.80;;
45784;SDS011;31489;51.404;5.474;2024-03-08T02:43:11;20.55;;;14.32;;
45784;SDS011;31489;51.404;5.474;2024-03-08T02:45:39;22.10;;;14.43;;
45784;SDS011;31489;51.404;5.474;2024-03-08T02:48:07;22.25;;;14.05;;
45784;SDS011;31489;51.404;5.474;2024-03-08T02:50:33;21.48;;;14.90;;
45784;SDS011;31489;51.404;5.474;2024-03-08T02:53:00;22.42;;;15.05;;
45784;SDS011;31489;51.404;5.474;2024-03-08T02:55:25;19.20;;;13.15;;
45784;SDS011;31489;51.404;5.474;2024-03-08T02:57:51;22.38;;;14.80;;
45784;SDS011;31489;51.404;5.474;2024-03-08T03:00:19;21.00;;;14.32;;
45784;SDS011;31489;51.404;5.474;2024-03-08T03:02:46;21.88;;;13.90;;
45784;SDS011;31489;51.404;5.474;2024-03-08T03:05:12;21.05;;;14.60;;
45784;SDS011;31489;51.404;5.474;2024-03-08T03:07:37;21.60;;;14.98;;
45784;SDS011;31489;51.404;5.474;2024-03-08T03:10:04;22.77;;;14.70;;
45784;SDS011;31489;51.404;5.474;2024-03-08T03:12:30;22.90;;;14.45;;
45784;SDS011;31489;51.404;5.474;2024-03-08T03:14:56;23.55;;;14.27;;
45784;SDS011;31489;51.404;5.474;2024-03-08T03:17:25;23.10;;;14.98;;
45784;SDS011;31489;51.404;5.474;2024-03-08T03:19:51;21.92;;;15.23;;
45784;SDS011;31489;51.404;5.474;2024-03-08T03:22:18;21.75;;;14.18;;
45784;SDS011;31489;51.404;5.474;2024-03-08T03:24:44;19.58;;;13.77;;
45784;SDS011;31489;51.404;5.474;2024-03-08T03:27:11;20.20;;;14.60;;
45784;SDS011;31489;51.404;5.474;2024-03-08T03:29:41;20.70;;;15.25;;
45784;SDS011;31489;51.404;5.474;2024-03-08T03:32:10;19.58;;;14.52;;
45784;SDS011;31489;51.404;5.474;2024-03-08T03:34:37;18.90;;;14.85;;
45784;SDS011;31489;51.404;5.474;2024-03-08T03:37:03;22.65;;;14.93;;
45784;SDS011;31489;51.404;5.474;2024-03-08T03:39:29;22.85;;;15.07;;
45784;SDS011;31489;51.404;5.474;2024-03-08T03:41:59;20.65;;;14.80;;
45784;SDS011;31489;51.404;5.474;2024-03-08T03:44:27;22.35;;;14.15;;
45784;SDS011;31489;51.404;5.474;2024-03-08T03:46:53;18.67;;;14.15;;
45784;SDS011;31489;51.404;5.474;2024-03-08T03:49:19;22.00;;;16.20;;
45784;SDS011;31489;51.404;5.474;2024-03-08T03:51:45;20.75;;;14.35;;
45784;SDS011;31489;51.404;5.474;2024-03-08T03:54:11;20.80;;;15.07;;
45784;SDS011;31489;51.404;5.474;2024-03-08T03:56:37;21.80;;;15.80;;
45784;SDS011;31489;51.404;5.474;2024-03-08T03:59:04;19.77;;;15.05;;
45784;SDS011;31489;51.404;5.474;2024-03-08T04:01:31;19.60;;;14.30;;
45784;SDS011;31489;51.404;5.474;2024-03-08T04:04:06;21.15;;;14.20;;
45784;SDS011;31489;51.404;5.474;2024-03-08T04:06:32;22.70;;;15.65;;
45784;SDS011;31489;51.404;5.474;2024-03-08T04:08:58;25.67;;;15.95;;
45784;SDS011;31489;51.404;5.474;2024-03-08T04:11:23;21.20;;;15.38;;
45784;SDS011;31489;51.404;5.474;2024-03-08T04:13:49;23.58;;;15.32;;
45784;SDS011;31489;51.404;5.474;2024-03-08T04:16:15;20.33;;;15.20;;
45784;SDS011;31489;51.404;5.474;2024-03-08T04:18:40;22.88;;;15.18;;
45784;SDS011;31489;51.404;5.474;2024-03-08T04:21:09;21.33;;;15.27;;
45784;SDS011;31489;51.404;5.474;2024-03-08T04:23:34;22.73;;;14.77;;
45784;SDS011;31489;51.404;5.474;2024-03-08T04:26:01;22.25;;;15.38;;
45784;SDS011;31489;51.404;5.474;2024-03-08T04:28:29;20.33;;;14.82;;
45784;SDS011;31489;51.404;5.474;2024-03-08T04:30:55;24.80;;;15.30;;
45784;SDS011;31489;51.404;5.474;2024-03-08T04:33:20;19.05;;;14.05;;
45784;SDS011;31489;51.404;5.474;2024-03-08T04:35:48;22.55;;;15.75;;
45784;SDS011;31489;51.404;5.474;2024-03-08T04:38:14;23.52;;;15.80;;
45784;SDS011;31489;51.404;5.474;2024-03-08T04:40:40;21.65;;;15.00;;
45784;SDS011;31489;51.404;5.474;2024-03-08T04:43:09;18.40;;;14.55;;
45784;SDS011;31489;51.404;5.474;2024-03-08T04:45:35;20.13;;;15.02;;
45784;SDS011;31489;51.404;5.474;2024-03-08T04:48:02;21.15;;;15.05;;
45784;SDS011;31489;51.404;5.474;2024-03-08T04:50:28;20.30;;;15.65;;
45784;SDS011;31489;51.404;5.474;2024-03-08T04:52:56;18.33;;;14.50;;
45784;SDS011;31489;51.404;5.474;2024-03-08T04:55:22;21.42;;;14.90;;
45784;SDS011;31489;51.404;5.474;2024-03-08T04:57:48;21.02;;;15.20;;
45784;SDS011;31489;51.404;5.474;2024-03-08T05:00:14;24.67;;;16.08;;
45784;SDS011;31489;51.404;5.474;2024-03-08T05:02:40;24.98;;;16.27;;
45784;SDS011;31489;51.404;5.474;2024-03-08T05:05:06;20.70;;;15.43;;
45784;SDS011;31489;51.404;5.474;2024-03-08T05:07:34;22.55;;;15.45;;
45784;SDS011;31489;51.404;5.474;2024-03-08T05:10:00;21.25;;;15.20;;
45784;SDS011;31489;51.404;5.474;2024-03-08T05:12:27;22.48;;;15.52;;
45784;SDS011;31489;51.404;5.474;2024-03-08T05:14:53;23.90;;;15.40;;
45784;SDS011;31489;51.404;5.474;2024-03-08T05:17:18;21.25;;;15.35;;
45784;SDS011;31489;51.404;5.474;2024-03-08T05:19:44;25.38;;;15.63;;
45784;SDS011;31489;51.404;5.474;2024-03-08T05:22:10;21.80;;;15.60;;
45784;SDS011;31489;51.404;5.474;2024-03-08T05:24:36;19.73;;;14.90;;
45784;SDS011;31489;51.404;5.474;2024-03-08T05:27:02;26.42;;;16.50;;
45784;SDS011;31489;51.404;5.474;2024-03-08T05:29:28;23.85;;;15.68;;
45784;SDS011;31489;51.404;5.474;2024-03-08T05:31:54;21.60;;;15.20;;
45784;SDS011;31489;51.404;5.474;2024-03-08T05:34:21;23.45;;;16.13;;
45784;SDS011;31489;51.404;5.474;2024-03-08T05:36:47;22.27;;;15.77;;
45784;SDS011;31489;51.404;5.474;2024-03-08T05:39:16;21.80;;;16.08;;
45784;SDS011;31489;51.404;5.474;2024-03-08T05:41:43;22.50;;;16.10;;
45784;SDS011;31489;51.404;5.474;2024-03-08T05:44:10;20.70;;;15.00;;
45784;SDS011;31489;51.404;5.474;2024-03-08T05:46:37;22.33;;;15.75;;
45784;SDS011;31489;51.404;5.474;2024-03-08T05:49:03;22.75;;;16.30;;
45784;SDS011;31489;51.404;5.474;2024-03-08T05:51:35;23.77;;;16.42;;
45784;SDS011;31489;51.404;5.474;2024-03-08T05:54:02;37.38;;;25.42;;
45784;SDS011;31489;51.404;5.474;2024-03-08T05:56:37;25.05;;;17.15;;
45784;SDS011;31489;51.404;5.474;2024-03-08T05:59:05;23.38;;;16.92;;
45784;SDS011;31489;51.404;5.474;2024-03-08T06:01:37;21.67;;;16.23;;
45784;SDS011;31489;51.404;5.474;2024-03-08T06:04:03;23.83;;;16.65;;
45784;SDS011;31489;51.404;5.474;2024-03-08T06:06:29;24.73;;;16.98;;
45784;SDS011;31489;51.404;5.474;2024-03-08T06:08:55;26.50;;;16.88;;
45784;SDS011;31489;51.404;5.474;2024-03-08T06:11:33;21.52;;;16.48;;
45784;SDS011;31489;51.404;5.474;2024-03-08T06:13:59;28.60;;;17.35;;
45784;SDS011;31489;51.404;5.474;2024-03-08T06:16:28;25.95;;;18.48;;
45784;SDS011;31489;51.404;5.474;2024-03-08T06:18:54;23.63;;;18.30;;
45784;SDS011;31489;51.404;5.474;2024-03-08T06:21:21;23.88;;;18.55;;
45784;SDS011;31489;51.404;5.474;2024-03-08T06:23:47;22.45;;;16.58;;
45784;SDS011;31489;51.404;5.474;2024-03-08T06:26:13;22.50;;;15.20;;
45784;SDS011;31489;51.404;5.474;2024-03-08T06:28:39;25.50;;;16.00;;
45784;SDS011;31489;51.404;5.474;2024-03-08T06:31:04;22.48;;;16.20;;
45784;SDS011;31489;51.404;5.474;2024-03-08T06:33:31;21.98;;;16.05;;
45784;SDS011;31489;51.404;5.474;2024-03-08T06:35:57;25.95;;;17.60;;
45784;SDS011;31489;51.404;5.474;2024-03-08T06:38:23;25.05;;;16.92;;
45784;SDS011;31489;51.404;5.474;2024-03-08T06:40:49;24.48;;;16.88;;
45784;SDS011;31489;51.404;5.474;2024-03-08T06:43:16;23.33;;;16.42;;
45784;SDS011;31489;51.404;5.474;2024-03-08T06:45:43;21.73;;;16.08;;
45784;SDS011;31489;51.404;5.474;2024-03-08T06:48:15;26.55;;;16.58;;
45784;SDS011;31489;51.404;5.474;2024-03-08T06:50:44;25.70;;;17.23;;
45784;SDS011;31489;51.404;5.474;2024-03-08T06:53:11;25.90;;;17.42;;
45784;SDS011;31489;51.404;5.474;2024-03-08T06:55:37;23.75;;;17.42;;
45784;SDS011;31489;51.404;5.474;2024-03-08T06:58:03;22.80;;;16.25;;
45784;SDS011;31489;51.404;5.474;2024-03-08T07:00:29;24.90;;;17.38;;
45784;SDS011;31489;51.404;5.474;2024-03-08T07:02:55;23.20;;;16.95;;
45784;SDS011;31489;51.404;5.474;2024-03-08T07:05:26;25.92;;;18.10;;
45784;SDS011;31489;51.404;5.474;2024-03-08T07:07:52;25.40;;;17.98;;
45784;SDS011;31489;51.404;5.474;2024-03-08T07:10:18;28.65;;;17.70;;
45784;SDS011;31489;51.404;5.474;2024-03-08T07:12:44;25.38;;;17.55;;
45784;SDS011;31489;51.404;5.474;2024-03-08T07:15:11;25.33;;;17.35;;
45784;SDS011;31489;51.404;5.474;2024-03-08T07:17:44;26.98;;;16.95;;
45784;SDS011;31489;51.404;5.474;2024-03-08T07:20:10;27.35;;;17.27;;
45784;SDS011;31489;51.404;5.474;2024-03-08T07:22:37;26.10;;;18.27;;
45784;SDS011;31489;51.404;5.474;2024-03-08T07:25:06;24.38;;;17.77;;
45784;SDS011;31489;51.404;5.474;2024-03-08T07:27:33;23.60;;;16.60;;
45784;SDS011;31489;51.404;5.474;2024-03-08T07:30:02;25.63;;;17.17;;
45784;SDS011;31489;51.404;5.474;2024-03-08T07:32:28;25.45;;;17.45;;
45784;SDS011;31489;51.404;5.474;2024-03-08T07:34:55;22.92;;;16.33;;
45784;SDS011;31489;51.404;5.474;2024-03-08T07:37:21;24.67;;;16.50;;
45784;SDS011;31489;51.404;5.474;2024-03-08T07:39:47;26.70;;;17.13;;
45784;SDS011;31489;51.404;5.474;2024-03-08T07:42:12;22.75;;;17.17;;
45784;SDS011;31489;51.404;5.474;2024-03-08T07:44:38;26.02;;;18.27;;
45784;SDS011;31489;51.404;5.474;2024-03-08T07:47:04;23.33;;;17.10;;
45784;SDS011;31489;51.404;5.474;2024-03-08T07:49:34;23.33;;;16.38;;
45784;SDS011;31489;51.404;5.474;2024-03-08T07:52:03;24.45;;;17.70;;
45784;SDS011;31489;51.404;5.474;2024-03-08T07:54:29;23.73;;;17.02;;
45784;SDS011;31489;51.404;5.474;2024-03-08T07:56:55;28.48;;;17.52;;
45784;SDS011;31489;51.404;5.474;2024-03-08T07:59:21;26.17;;;17.83;;
45784;SDS011;31489;51.404;5.474;2024-03-08T08:01:47;23.88;;;17.10;;
45784;SDS011;31489;51.404;5.474;2024-03-08T08:04:13;24.15;;;16.70;;
45784;SDS011;31489;51.404;5.474;2024-03-08T08:06:39;25.45;;;17.60;;
45784;SDS011;31489;51.404;5.474;2024-03-08T08:09:08;24.33;;;17.90;;
45784;SDS011;31489;51.404;5.474;2024-03-08T08:11:39;23.17;;;16.73;;
45784;SDS011;31489;51.404;5.474;2024-03-08T08:14:08;26.95;;;16.77;;
45784;SDS011;31489;51.404;5.474;2024-03-08T08:16:34;23.05;;;15.55;;
45784;SDS011;31489;51.404;5.474;2024-03-08T08:19:02;23.88;;;17.48;;
45784;SDS011;31489;51.404;5.474;2024-03-08T08:21:32;24.10;;;16.90;;
45784;SDS011;31489;51.404;5.474;2024-03-08T08:23:59;23.52;;;16.65;;
45784;SDS011;31489;51.404;5.474;2024-03-08T08:26:25;25.00;;;16.85;;
45784;SDS011;31489;51.404;5.474;2024-03-08T08:28:51;23.55;;;17.00;;
45784;SDS011;31489;51.404;5.474;2024-03-08T08:31:18;23.42;;;17.02;;
45784;SDS011;31489;51.404;5.474;2024-03-08T08:33:44;23.40;;;16.20;;
45784;SDS011;31489;51.404;5.474;2024-03-08T08:36:10;23.13;;;16.13;;
45784;SDS011;31489;51.404;5.474;2024-03-08T08:38:35;22.92;;;15.85;;
45784;SDS011;31489;51.404;5.474;2024-03-08T08:41:01;24.48;;;17.13;;
45784;SDS011;31489;51.404;5.474;2024-03-08T08:43:27;25.27;;;16.65;;
45784;SDS011;31489;51.404;5.474;2024-03-08T08:45:53;23.42;;;16.08;;
45784;SDS011;31489;51.404;5.474;2024-03-08T08:48:20;27.30;;;16.70;;
45784;SDS011;31489;51.404;5.474;2024-03-08T08:50:46;23.38;;;15.75;;
45784;SDS011;31489;51.404;5.474;2024-03-08T08:53:12;21.38;;;15.85;;
45784;SDS011;31489;51.404;5.474;2024-03-08T08:55:42;24.35;;;15.90;;
45784;SDS011;31489;51.404;5.474;2024-03-08T08:58:07;23.20;;;16.48;;
45784;SDS011;31489;51.404;5.474;2024-03-08T09:00:33;21.25;;;15.52;;
45784;SDS011;31489;51.404;5.474;2024-03-08T09:02:59;22.92;;;16.08;;
45784;SDS011;31489;51.404;5.474;2024-03-08T09:05:27;24.10;;;16.98;;
45784;SDS011;31489;51.404;5.474;2024-03-08T09:07:53;24.65;;;16.85;;
45784;SDS011;31489;51.404;5.474;2024-03-08T09:10:18;19.98;;;15.45;;
45784;SDS011;31489;51.404;5.474;2024-03-08T09:12:44;21.85;;;15.82;;
45784;SDS011;31489;51.404;5.474;2024-03-08T09:15:10;20.30;;;15.25;;
45784;SDS011;31489;51.404;5.474;2024-03-08T09:17:36;19.65;;;15.10;;
45784;SDS011;31489;51.404;5.474;2024-03-08T09:20:05;19.52;;;14.70;;
45784;SDS011;31489;51.404;5.474;2024-03-08T09:22:32;22.55;;;15.63;;
45784;SDS011;31489;51.404;5.474;2024-03-08T09:24:57;20.92;;;14.30;;
45784;SDS011;31489;51.404;5.474;2024-03-08T09:27:23;19.52;;;14.35;;
45784;SDS011;31489;51.404;5.474;2024-03-08T09:29:49;21.45;;;15.20;;
45784;SDS011;31489;51.404;5.474;2024-03-08T09:32:17;21.58;;;15.23;;
45784;SDS011;31489;51.404;5.474;2024-03-08T09:34:47;20.90;;;14.38;;
45784;SDS011;31489;51.404;5.474;2024-03-08T09:37:13;19.65;;;14.15;;
45784;SDS011;31489;51.404;5.474;2024-03-08T09:39:39;19.63;;;14.90;;
45784;SDS011;31489;51.404;5.474;2024-03-08T09:42:05;19.05;;;13.77;;
45784;SDS011;31489;51.404;5.474;2024-03-08T09:44:31;27.50;;;14.82;;
45784;SDS011;31489;51.404;5.474;2024-03-08T09:46:57;18.63;;;14.02;;
45784;SDS011;31489;51.404;5.474;2024-03-08T09:49:24;33.42;;;15.65;;
45784;SDS011;31489;51.404;5.474;2024-03-08T09:51:49;23.88;;;15.98;;
45784;SDS011;31489;51.404;5.474;2024-03-08T09:54:16;27.23;;;16.23;;
45784;SDS011;31489;51.404;5.474;2024-03-08T09:56:42;80.68;;;20.27;;
45784;SDS011;31489;51.404;5.474;2024-03-08T09:59:11;23.60;;;15.45;;
45784;SDS011;31489;51.404;5.474;2024-03-08T10:01:37;22.20;;;14.68;;
45784;SDS011;31489;51.404;5.474;2024-03-08T10:04:06;101.82;;;23.35;;
45784;SDS011;31489;51.404;5.474;2024-03-08T10:06:32;21.88;;;15.07;;
45784;SDS011;31489;51.404;5.474;2024-03-08T10:08:58;19.85;;;13.45;;
45784;SDS011;31489;51.404;5.474;2024-03-08T10:11:26;21.75;;;14.02;;
45784;SDS011;31489;51.404;5.474;2024-03-08T10:13:52;21.88;;;13.82;;
45784;SDS011;31489;51.404;5.474;2024-03-08T10:16:18;32.15;;;15.82;;
45784;SDS011;31489;51.404;5.474;2024-03-08T10:18:47;18.27;;;13.18;;
45784;SDS011;31489;51.404;5.474;2024-03-08T10:21:12;20.05;;;13.98;;
45784;SDS011;31489;51.404;5.474;2024-03-08T10:23:40;20.75;;;14.15;;
45784;SDS011;31489;51.404;5.474;2024-03-08T10:26:12;39.47;;;16.15;;
45784;SDS011;31489;51.404;5.474;2024-03-08T10:28:44;21.05;;;14.02;;
45784;SDS011;31489;51.404;5.474;2024-03-08T10:31:12;18.02;;;14.07;;
45784;SDS011;31489;51.404;5.474;2024-03-08T10:33:42;17.95;;;13.20;;
45784;SDS011;31489;51.404;5.474;2024-03-08T10:36:08;16.42;;;13.73;;
45784;SDS011;31489;51.404;5.474;2024-03-08T10:38:35;50.13;;;15.43;;
45784;SDS011;31489;51.404;5.474;2024-03-08T10:41:03;87.18;;;18.20;;
45784;SDS011;31489;51.404;5.474;2024-03-08T10:43:31;15.25;;;11.00;;
45784;SDS011;31489;51.404;5.474;2024-03-08T10:46:24;12.52;;;10.63;;
45784;SDS011;31489;51.404;5.474;2024-03-08T10:49:08;27.25;;;11.57;;
45784;SDS011;31489;51.404;5.474;2024-03-08T10:51:42;12.45;;;10.25;;
45784;SDS011;31489;51.404;5.474;2024-03-08T10:54:09;14.73;;;9.82;;
45784;SDS011;31489;51.404;5.474;2024-03-08T10:56:39;14.25;;;10.27;;
45784;SDS011;31489;51.404;5.474;2024-03-08T10:59:05;12.52;;;10.15;;
45784;SDS011;31489;51.404;5.474;2024-03-08T11:01:33;11.35;;;9.45;;
45784;SDS011;31489;51.404;5.474;2024-03-08T11:03:59;14.75;;;9.88;;
45784;SDS011;31489;51.404;5.474;2024-03-08T11:09:03;11.23;;;9.07;;
45784;SDS011;31489;51.404;5.474;2024-03-08T11:11:47;11.80;;;9.40;;
45784;SDS011;31489;51.404;5.474;2024-03-08T11:14:56;13.90;;;9.52;;
45784;SDS011;31489;51.404;5.474;2024-03-08T11:17:14;10.68;;;9.18;;
45784;SDS011;31489;51.404;5.474;2024-03-08T11:19:45;11.85;;;9.27;;
45784;SDS011;31489;51.404;5.474;2024-03-08T11:22:25;12.30;;;9.25;;
45784;SDS011;31489;51.404;5.474;2024-03-08T11:25:04;10.23;;;8.85;;
45784;SDS011;31489;51.404;5.474;2024-03-08T11:27:35;9.98;;;8.70;;
45784;SDS011;31489;51.404;5.474;2024-03-08T11:32:36;11.20;;;9.00;;
45784;SDS011;31489;51.404;5.474;2024-03-08T11:35:05;12.15;;;9.15;;
45784;SDS011;31489;51.404;5.474;2024-03-08T11:37:33;10.40;;;8.95;;
45784;SDS011;31489;51.404;5.474;2024-03-08T11:40:05;11.25;;;9.40;;
45784;SDS011;31489;51.404;5.474;2024-03-08T11:42:44;11.52;;;8.98;;
45784;SDS011;31489;51.404;5.474;2024-03-08T11:45:14;10.80;;;8.18;;
45784;SDS011;31489;51.404;5.474;2024-03-08T11:47:46;9.02;;;8.13;;
45784;SDS011;31489;51.404;5.474;2024-03-08T11:50:15;9.00;;;8.10;;
45784;SDS011;31489;51.404;5.474;2024-03-08T11:52:46;11.98;;;9.00;;
45784;SDS011;31489;51.404;5.474;2024-03-08T11:55:12;10.35;;;9.07;;
45784;SDS011;31489;51.404;5.474;2024-03-08T11:57:38;12.55;;;9.18;;
45784;SDS011;31489;51.404;5.474;2024-03-08T12:00:04;10.40;;;8.40;;
45784;SDS011;31489;51.404;5.474;2024-03-08T12:02:33;9.68;;;8.70;;
45784;SDS011;31489;51.404;5.474;2024-03-08T12:05:07;9.43;;;8.25;;
45784;SDS011;31489;51.404;5.474;2024-03-08T12:07:41;9.82;;;8.82;;
45784;SDS011;31489;51.404;5.474;2024-03-08T12:10:17;9.90;;;8.88;;
45784;SDS011;31489;51.404;5.474;2024-03-08T12:12:48;10.52;;;8.55;;
45784;SDS011;31489;51.404;5.474;2024-03-08T12:15:19;9.98;;;8.95;;
45784;SDS011;31489;51.404;5.474;2024-03-08T12:17:49;11.30;;;9.18;;
45784;SDS011;31489;51.404;5.474;2024-03-08T12:20:18;28.13;;;10.52;;
45784;SDS011;31489;51.404;5.474;2024-03-08T12:22:47;16.63;;;9.52;;
45784;SDS011;31489;51.404;5.474;2024-03-08T12:25:14;10.82;;;9.02;;
45784;SDS011;31489;51.404;5.474;2024-03-08T12:27:44;10.93;;;8.55;;
45784;SDS011;31489;51.404;5.474;2024-03-08T12:30:26;14.15;;;8.90;;
45784;SDS011;31489;51.404;5.474;2024-03-08T12:32:59;13.15;;;8.55;;
45784;SDS011;31489;51.404;5.474;2024-03-08T12:35:28;18.23;;;8.75;;
45784;SDS011;31489;51.404;5.474;2024-03-08T12:37:55;14.07;;;8.95;;
45784;SDS011;31489;51.404;5.474;2024-03-08T12:40:29;9.65;;;8.65;;
45784;SDS011;31489;51.404;5.474;2024-03-08T12:42:59;11.90;;;8.70;;
45784;SDS011;31489;51.404;5.474;2024-03-08T12:45:27;12.00;;;9.20;;
45784;SDS011;31489;51.404;5.474;2024-03-08T12:47:53;9.30;;;8.32;;
45784;SDS011;31489;51.404;5.474;2024-03-08T12:50:23;14.00;;;9.38;;
45784;SDS011;31489;51.404;5.474;2024-03-08T12:52:52;15.98;;;9.23;;
45784;SDS011;31489;51.404;5.474;2024-03-08T12:55:18;12.93;;;9.45;;
45784;SDS011;31489;51.404;5.474;2024-03-08T12:57:44;10.68;;;9.07;;
45784;SDS011;31489;51.404;5.474;2024-03-08T13:00:12;11.95;;;8.75;;
45784;SDS011;31489;51.404;5.474;2024-03-08T13:02:44;27.08;;;10.32;;
45784;SDS011;31489;51.404;5.474;2024-03-08T13:05:10;22.88;;;10.13;;
45784;SDS011;31489;51.404;5.474;2024-03-08T13:07:39;13.43;;;8.30;;
45784;SDS011;31489;51.404;5.474;2024-03-08T13:10:11;10.40;;;8.48;;
45784;SDS011;31489;51.404;5.474;2024-03-08T13:12:39;13.93;;;7.78;;
45784;SDS011;31489;51.404;5.474;2024-03-08T13:15:08;13.18;;;9.35;;
45784;SDS011;31489;51.404;5.474;2024-03-08T13:20:22;10.65;;;8.30;;
45784;SDS011;31489;51.404;5.474;2024-03-08T13:22:48;10.00;;;7.72;;
45784;SDS011;31489;51.404;5.474;2024-03-08T13:25:13;9.82;;;8.13;;
45784;SDS011;31489;51.404;5.474;2024-03-08T13:27:42;15.70;;;7.97;;
45784;SDS011;31489;51.404;5.474;2024-03-08T13:30:08;9.02;;;7.28;;
45784;SDS011;31489;51.404;5.474;2024-03-08T13:32:43;10.13;;;8.18;;
45784;SDS011;31489;51.404;5.474;2024-03-08T13:35:10;9.38;;;7.85;;
45784;SDS011;31489;51.404;5.474;2024-03-08T13:37:42;13.55;;;8.00;;
45784;SDS011;31489;51.404;5.474;2024-03-08T13:43:31;14.30;;;7.60;;
45784;SDS011;31489;51.404;5.474;2024-03-08T13:45:59;9.02;;;7.43;;
45784;SDS011;31489;51.404;5.474;2024-03-08T13:48:24;8.75;;;7.45;;
45784;SDS011;31489;51.404;5.474;2024-03-08T13:50:50;11.57;;;7.88;;
45784;SDS011;31489;51.404;5.474;2024-03-08T13:53:16;10.15;;;8.02;;
45784;SDS011;31489;51.404;5.474;2024-03-08T13:55:42;9.35;;;7.68;;
45784;SDS011;31489;51.404;5.474;2024-03-08T13:58:08;9.65;;;7.35;;
45784;SDS011;31489;51.404;5.474;2024-03-08T14:00:35;8.88;;;7.28;;
45784;SDS011;31489;51.404;5.474;2024-03-08T14:03:04;11.63;;;7.35;;
45784;SDS011;31489;51.404;5.474;2024-03-08T14:05:35;8.13;;;7.28;;
45784;SDS011;31489;51.404;5.474;2024-03-08T14:08:04;9.75;;;7.18;;
45784;SDS011;31489;51.404;5.474;2024-03-08T14:10:32;12.65;;;7.30;;
45784;SDS011;31489;51.404;5.474;2024-03-08T14:13:02;9.15;;;7.15;;
45784;SDS011;31489;51.404;5.474;2024-03-08T14:15:30;9.50;;;7.97;;
45784;SDS011;31489;51.404;5.474;2024-03-08T14:17:56;8.02;;;7.22;;
45784;SDS011;31489;51.404;5.474;2024-03-08T14:20:22;9.13;;;7.07;;
45784;SDS011;31489;51.404;5.474;2024-03-08T14:22:54;11.45;;;7.63;;
45784;SDS011;31489;51.404;5.474;2024-03-08T14:25:20;10.40;;;7.55;;
45784;SDS011;31489;51.404;5.474;2024-03-08T14:27:48;9.35;;;7.35;;
45784;SDS011;31489;51.404;5.474;2024-03-08T14:30:15;10.30;;;7.10;;
45784;SDS011;31489;51.404;5.474;2024-03-08T14:33:07;10.15;;;7.03;;
45784;SDS011;31489;51.404;5.474;2024-03-08T14:35:34;9.90;;;7.45;;
45784;SDS011;31489;51.404;5.474;2024-03-08T14:38:01;9.48;;;7.13;;
45784;SDS011;31489;51.404;5.474;2024-03-08T14:40:27;8.27;;;6.93;;
45784;SDS011;31489;51.404;5.474;2024-03-08T14:42:53;7.95;;;7.15;;